createdAt,value
2022-11-04T00:02:25.209Z,7.07
2022-11-04T00:05:09.866Z,7.07
2022-11-04T00:08:16.679Z,7.08
2022-11-04T00:11:05.114Z,7.11
2022-11-04T00:13:35.691Z,7.11
2022-11-04T00:16:24.308Z,7.12
2022-11-04T00:18:55.505Z,7.14
2022-11-04T00:21:43.803Z,7.18
2022-11-04T00:24:41.636Z,7.24
2022-11-04T00:27:31.150Z,7.24
2022-11-04T00:30:02.489Z,7.23
2022-11-04T00:32:51.516Z,7.25
2022-11-04T00:35:22.834Z,7.26
2022-11-04T00:37:53.447Z,7.26
2022-11-04T00:40:25.531Z,7.28
2022-11-04T00:42:58.635Z,7.30
2022-11-04T00:45:29.746Z,7.32
2022-11-04T00:48:01.060Z,7.32
2022-11-04T00:50:31.931Z,7.34
2022-11-04T00:53:03.995Z,7.36
2022-11-04T00:55:34.583Z,7.40
2022-11-04T00:58:05.273Z,7.44
2022-11-04T01:00:35.926Z,7.45
2022-11-04T01:03:07.028Z,7.51
2022-11-04T01:05:39.966Z,7.57
2022-11-04T01:08:11.133Z,7.58
2022-11-04T01:10:44.770Z,7.56
2022-11-04T01:13:15.756Z,7.55
2022-11-04T01:15:46.502Z,7.57
2022-11-04T01:18:17.160Z,7.54
2022-11-04T01:20:47.811Z,7.51
2022-11-04T01:23:18.563Z,7.54
2022-11-04T01:25:51.839Z,7.57
2022-11-04T01:28:22.967Z,7.57
2022-11-04T01:30:53.638Z,7.54
2022-11-04T01:33:25.001Z,7.52
2022-11-04T01:35:55.685Z,7.48
2022-11-04T01:38:27.222Z,7.49
2022-11-04T01:40:57.953Z,7.49
2022-11-04T01:43:50.886Z,7.48
2022-11-04T01:46:28.991Z,7.47
2022-11-04T01:49:05.502Z,7.43
2022-11-04T01:51:43.940Z,7.42
2022-11-04T01:54:15.545Z,7.39
2022-11-04T01:56:48.374Z,7.40
2022-11-04T01:59:23.823Z,7.45
2022-11-04T02:01:55.227Z,7.47
2022-11-04T02:04:30.211Z,7.50
2022-11-04T02:07:03.655Z,7.49
2022-11-04T02:09:35.792Z,7.52
2022-11-04T02:12:25.188Z,7.50
2022-11-04T02:14:57.084Z,7.47
2022-11-04T02:17:48.310Z,7.47
2022-11-04T02:20:37.505Z,7.48
2022-11-04T02:23:52.936Z,7.48
2022-11-04T02:26:59.584Z,7.51
2022-11-04T02:29:48.430Z,7.54
2022-11-04T02:32:26.329Z,7.53
2022-11-04T02:35:04.901Z,7.50
2022-11-04T02:37:47.994Z,7.48
2022-11-04T02:40:28.534Z,7.51
2022-11-04T02:43:08.201Z,7.53
2022-11-04T02:45:42.956Z,7.53
2022-11-04T02:48:21.148Z,7.52
2022-11-04T02:50:57.275Z,7.57
2022-11-04T02:53:33.726Z,7.60
2022-11-04T02:56:07.073Z,7.60
2022-11-04T02:58:43.196Z,7.58
2022-11-04T03:01:18.040Z,7.57
2022-11-04T03:03:54.581Z,7.58
2022-11-04T03:06:29.073Z,7.60
2022-11-04T03:09:01.926Z,7.63
2022-11-04T03:11:33.578Z,7.63
2022-11-04T03:14:15.419Z,7.62
2022-11-04T03:16:50.703Z,7.61
2022-11-04T03:19:30.984Z,7.62
2022-11-04T03:22:05.616Z,7.64
2022-11-04T03:24:36.434Z,7.68
2022-11-04T03:27:15.074Z,7.74
2022-11-04T03:29:58.229Z,7.76
2022-11-04T03:32:38.111Z,7.68
2022-11-04T03:35:12.570Z,7.66
2022-11-04T03:37:43.618Z,7.67
2022-11-04T03:40:15.868Z,7.70
2022-11-04T03:42:52.723Z,7.72
2022-11-04T03:45:23.635Z,7.72
2022-11-04T03:47:55.041Z,7.74
2022-11-04T03:50:29.973Z,7.76
2022-11-04T03:53:01.456Z,7.77
2022-11-04T03:55:44.628Z,7.78
2022-11-04T03:58:26.880Z,7.82
2022-11-04T04:01:05.413Z,7.85
2022-11-04T04:03:42.732Z,7.85
2022-11-04T04:06:17.189Z,7.85
2022-11-04T04:08:54.287Z,7.89
2022-11-04T04:11:37.622Z,7.93
2022-11-04T04:14:34.358Z,7.94
2022-11-04T04:17:19.048Z,7.91
2022-11-04T04:19:53.907Z,7.91
2022-11-04T04:22:29.355Z,7.92
2022-11-04T04:25:22.265Z,7.95
2022-11-04T04:27:55.659Z,7.96
2022-11-04T04:30:28.200Z,7.95
2022-11-04T04:33:05.100Z,8.00
2022-11-04T04:35:44.108Z,8.01
2022-11-04T04:38:40.935Z,8.02
2022-11-04T04:41:34.943Z,8.01
2022-11-04T04:44:29.616Z,8.02
2022-11-04T04:47:02.756Z,8.01
2022-11-04T04:49:37.339Z,8.01
2022-11-04T04:52:13.150Z,8.03
2022-11-04T04:54:46.979Z,8.04
2022-11-04T04:57:18.491Z,8.06
2022-11-04T04:59:51.862Z,8.07
2022-11-04T05:02:23.158Z,8.07
2022-11-04T05:04:54.495Z,8.09
2022-11-04T05:07:25.173Z,8.09
2022-11-04T05:09:55.872Z,8.08
2022-11-04T05:12:26.591Z,8.10
2022-11-04T05:14:57.842Z,8.13
2022-11-04T05:17:31.315Z,8.12
2022-11-04T05:20:02.075Z,8.12
2022-11-04T05:22:35.365Z,8.12
2022-11-04T05:25:06.777Z,8.14
2022-11-04T05:27:38.448Z,8.15
2022-11-04T05:30:11.421Z,8.15
2022-11-04T05:32:42.075Z,8.17
2022-11-04T05:35:13.564Z,8.16
2022-11-04T05:37:46.770Z,8.15
2022-11-04T05:43:04.207Z,8.17
2022-11-04T05:45:35.062Z,8.17
2022-11-04T05:48:12.318Z,8.19
2022-11-04T05:50:44.822Z,8.21
2022-11-04T05:53:20.602Z,8.23
2022-11-04T05:55:51.797Z,8.26
2022-11-04T05:58:25.510Z,8.26
2022-11-04T06:01:14.455Z,8.27
2022-11-04T06:03:49.918Z,8.28
2022-11-04T06:06:20.917Z,8.30
2022-11-04T06:08:52.680Z,8.31
2022-11-04T06:11:32.054Z,8.32
2022-11-04T06:14:04.037Z,8.35
2022-11-04T06:16:38.699Z,8.40
2022-11-04T06:19:15.109Z,8.39
2022-11-04T06:21:58.026Z,8.39
2022-11-04T06:24:29.525Z,8.40
2022-11-04T06:27:00.665Z,8.44
2022-11-04T06:29:41.397Z,8.48
2022-11-04T06:32:18.470Z,8.44
2022-11-04T06:34:50.105Z,8.42
2022-11-04T06:37:31.923Z,8.41
2022-11-04T06:40:05.319Z,8.42
2022-11-04T06:42:37.411Z,8.40
2022-11-04T06:45:13.852Z,8.41
2022-11-04T06:47:45.666Z,8.44
2022-11-04T06:50:18.821Z,8.45
2022-11-04T06:52:53.485Z,8.48
2022-11-04T06:55:24.866Z,8.53
2022-11-04T06:57:55.821Z,8.59
2022-11-04T07:00:27.211Z,8.65
2022-11-04T07:02:57.988Z,8.69
2022-11-04T07:05:43.793Z,8.70
2022-11-04T07:08:17.272Z,8.64
2022-11-04T07:10:55.878Z,8.64
2022-11-04T07:13:28.102Z,8.68
2022-11-04T07:15:59.971Z,8.72
2022-11-04T07:18:30.714Z,8.74
2022-11-04T07:21:07.063Z,8.78
2022-11-04T07:23:42.771Z,8.80
2022-11-04T07:26:19.714Z,8.79
2022-11-04T07:28:54.602Z,8.75
2022-11-04T07:31:27.945Z,8.74
2022-11-04T07:33:59.537Z,8.78
2022-11-04T07:36:34.876Z,8.81
2022-11-04T07:39:06.816Z,8.86
2022-11-04T07:41:38.045Z,8.92
2022-11-04T07:44:14.079Z,8.99
2022-11-04T07:46:44.791Z,9.06
2022-11-04T07:49:19.894Z,9.07
2022-11-04T07:51:55.129Z,9.07
2022-11-04T07:54:26.184Z,9.09
2022-11-04T07:56:57.003Z,9.08
2022-11-04T07:59:29.345Z,9.10
2022-11-04T08:02:26.590Z,9.11
2022-11-04T08:05:13.092Z,9.12
2022-11-04T08:07:44.206Z,9.15
2022-11-04T08:10:15.504Z,9.19
2022-11-04T08:12:54.102Z,9.16
2022-11-04T08:15:24.907Z,9.14
2022-11-04T08:17:56.249Z,9.13
2022-11-04T08:20:28.366Z,9.16
2022-11-04T08:22:59.472Z,9.18
2022-11-04T08:25:32.892Z,9.16
2022-11-04T08:28:57.180Z,9.22
2022-11-04T08:31:31.956Z,9.28
2022-11-04T08:34:06.130Z,9.28
2022-11-04T08:36:42.073Z,9.29
2022-11-04T08:39:16.546Z,9.35
2022-11-04T08:41:52.174Z,9.37
2022-11-04T08:44:25.641Z,9.37
2022-11-04T08:46:56.784Z,9.33
2022-11-04T08:49:32.481Z,9.29
2022-11-04T08:52:12.372Z,9.27
2022-11-04T08:54:44.893Z,9.24
2022-11-04T08:57:21.793Z,9.22
2022-11-04T08:59:56.467Z,9.20
2022-11-04T09:02:27.868Z,9.22
2022-11-04T09:05:02.939Z,9.26
2022-11-04T09:07:36.462Z,9.26
2022-11-04T09:10:09.422Z,9.27
2022-11-04T09:12:44.185Z,9.28
2022-11-04T09:15:15.388Z,9.32
2022-11-04T09:17:53.761Z,9.38
2022-11-04T09:20:29.284Z,9.41
2022-11-04T09:23:11.285Z,9.43
2022-11-04T09:25:48.729Z,9.45
2022-11-04T09:28:21.105Z,9.44
2022-11-04T09:30:52.396Z,9.45
2022-11-04T09:33:39.491Z,9.45
2022-11-04T09:36:23.863Z,9.50
2022-11-04T09:38:55.589Z,9.61
2022-11-04T09:41:54.958Z,9.69
2022-11-04T09:44:32.985Z,9.79
2022-11-04T09:47:11.051Z,9.89
2022-11-04T09:49:55.467Z,10.01
2022-11-04T09:52:32.497Z,10.15
2022-11-04T09:55:11.717Z,10.24
2022-11-04T09:57:42.622Z,10.32
2022-11-04T10:00:19.033Z,10.42
2022-11-04T10:03:23.130Z,10.48
2022-11-04T10:06:14.607Z,10.56
2022-11-04T10:09:04.131Z,10.64
2022-11-04T10:11:47.082Z,10.78
2022-11-04T10:14:37.401Z,10.94
2022-11-04T10:17:25.018Z,11.02
2022-11-04T10:20:27.047Z,11.12
2022-11-04T10:23:08.976Z,11.20
2022-11-04T10:25:57.128Z,11.32
2022-11-04T10:28:36.729Z,11.50
2022-11-04T10:31:18.614Z,11.54
2022-11-04T10:33:57.672Z,11.59
2022-11-04T10:36:37.180Z,11.71
2022-11-04T10:39:26.014Z,11.78
2022-11-04T10:41:58.330Z,11.79
2022-11-04T10:44:36.138Z,11.73
2022-11-04T10:47:24.038Z,11.72
2022-11-04T10:50:34.368Z,11.74
2022-11-04T10:53:27.765Z,11.70
2022-11-04T10:56:04.236Z,11.76
2022-11-04T10:59:00.131Z,11.83
2022-11-04T11:01:38.683Z,11.98
2022-11-04T11:04:28.072Z,12.12
2022-11-04T11:07:09.817Z,12.19
2022-11-04T11:10:00.209Z,12.20
2022-11-04T11:12:55.980Z,12.17
2022-11-04T11:15:38.203Z,12.21
2022-11-04T11:18:25.915Z,12.34
2022-11-04T11:21:14.819Z,12.45
2022-11-04T11:23:51.511Z,12.51
2022-11-04T11:26:31.293Z,12.58
2022-11-04T11:29:04.179Z,12.53
2022-11-04T11:31:42.270Z,12.54
2022-11-04T11:34:26.582Z,12.58
2022-11-04T11:36:59.333Z,12.65
2022-11-04T11:39:36.826Z,12.71
2022-11-04T11:42:21.084Z,12.76
2022-11-04T11:44:54.951Z,12.78
2022-11-04T11:47:43.055Z,12.81
2022-11-04T11:50:24.512Z,12.82
2022-11-04T11:53:08.350Z,12.78
2022-11-04T11:55:51.013Z,12.78
2022-11-04T12:01:30.420Z,12.78
2022-11-04T12:10:18.262Z,12.92
2022-11-04T12:13:22.942Z,12.92
2022-11-04T12:16:17.153Z,12.94
2022-11-04T12:19:03.390Z,12.98
2022-11-04T12:21:42.383Z,12.96
2022-11-04T12:24:28.849Z,12.95
2022-11-04T12:27:16.880Z,12.88
2022-11-04T12:30:07.133Z,12.85
2022-11-04T12:32:51.481Z,12.81
2022-11-04T12:35:47.375Z,12.80
2022-11-04T12:38:37.464Z,12.76
2022-11-04T12:41:52.449Z,12.77
2022-11-04T12:44:16.541Z,12.82
2022-11-04T12:47:15.509Z,12.87
2022-11-04T12:50:09.770Z,12.94
2022-11-04T12:52:52.076Z,12.96
2022-11-04T12:59:37.889Z,12.92
2022-11-04T13:02:21.748Z,12.85
2022-11-04T13:05:00.709Z,12.84
2022-11-04T13:07:40.630Z,12.84
2022-11-04T13:10:23.889Z,12.83
2022-11-04T13:12:57.194Z,12.81
2022-11-04T13:15:41.088Z,12.81
2022-11-04T13:18:17.414Z,12.78
2022-11-04T13:21:00.815Z,12.77
2022-11-04T13:23:46.639Z,12.75
2022-11-04T13:26:20.667Z,12.73
2022-11-04T13:29:03.079Z,12.72
2022-11-04T13:31:48.918Z,12.73
2022-11-04T13:34:34.595Z,12.75
2022-11-04T13:37:17.925Z,12.74
2022-11-04T13:39:59.268Z,12.73
2022-11-04T13:42:52.128Z,12.72
2022-11-04T13:45:24.967Z,12.71
2022-11-04T13:47:59.609Z,12.70
2022-11-04T13:50:39.643Z,12.69
2022-11-04T13:53:12.859Z,12.68
2022-11-04T13:55:53.175Z,12.63
2022-11-04T13:58:26.958Z,12.59
2022-11-04T14:01:15.947Z,12.53
2022-11-04T14:04:05.708Z,12.48
2022-11-04T14:06:54.980Z,12.45
2022-11-04T14:09:58.872Z,12.42
2022-11-04T14:12:35.646Z,12.37
2022-11-04T14:15:41.962Z,12.36
2022-11-04T14:18:33.484Z,12.29
2022-11-04T14:21:11.512Z,12.23
2022-11-04T14:23:47.147Z,12.19
2022-11-04T14:26:41.983Z,12.17
2022-11-04T14:29:28.384Z,12.11
2022-11-04T14:32:02.732Z,12.08
2022-11-04T14:34:49.466Z,12.01
2022-11-04T14:37:27.308Z,11.99
2022-11-04T14:40:04.904Z,11.98
2022-11-04T14:42:53.630Z,11.99
2022-11-04T14:45:27.964Z,11.98
2022-11-04T14:48:14.749Z,11.97
2022-11-04T14:50:53.734Z,11.94
2022-11-04T14:53:30.466Z,11.96
2022-11-04T14:56:23.482Z,11.98
2022-11-04T14:58:59.234Z,11.90
2022-11-04T15:01:34.999Z,11.83
2022-11-04T15:04:21.344Z,11.79
2022-11-04T15:06:58.892Z,11.77
2022-11-04T15:09:32.843Z,11.75
2022-11-04T15:12:29.652Z,11.75
2022-11-04T15:15:00.769Z,11.77
2022-11-04T15:17:36.212Z,11.76
2022-11-04T15:20:20.930Z,11.73
2022-11-04T15:22:52.571Z,11.71
2022-11-04T15:25:26.932Z,11.71
2022-11-04T15:27:58.389Z,11.67
2022-11-04T15:30:32.526Z,11.67
2022-11-04T15:33:13.885Z,11.66
2022-11-04T15:35:44.876Z,11.63
2022-11-04T15:38:16.474Z,11.60
2022-11-04T15:40:47.802Z,11.59
2022-11-04T15:43:22.103Z,11.61
2022-11-04T15:45:55.872Z,11.61
2022-11-04T15:48:44.406Z,11.58
2022-11-04T15:51:20.465Z,11.54
2022-11-04T15:53:54.748Z,11.52
2022-11-04T15:56:28.805Z,11.49
2022-11-04T15:59:01.510Z,11.51
2022-11-04T16:01:32.913Z,11.51
2022-11-04T16:04:07.060Z,11.50
2022-11-04T16:06:39.678Z,11.51
2022-11-04T16:09:23.855Z,11.46
2022-11-04T16:12:15.976Z,11.47
2022-11-04T16:14:54.557Z,11.48
2022-11-04T16:17:26.502Z,11.49
2022-11-04T16:20:00.179Z,11.50
2022-11-04T16:22:37.206Z,11.50
2022-11-04T16:25:11.182Z,11.50
2022-11-04T16:27:42.243Z,11.52
2022-11-04T16:30:21.121Z,11.50
2022-11-04T16:32:54.109Z,11.52
2022-11-04T16:35:26.583Z,11.50
2022-11-04T16:38:01.550Z,11.48
2022-11-04T16:40:34.912Z,11.46
2022-11-04T16:43:06.889Z,11.43
2022-11-04T16:45:39.232Z,11.41
2022-11-04T16:48:12.034Z,11.41
2022-11-04T16:50:43.545Z,11.39
2022-11-04T16:53:14.564Z,11.41
2022-11-04T16:55:47.565Z,11.41
2022-11-04T16:58:21.896Z,11.36
2022-11-04T17:00:53.194Z,11.33
2022-11-04T17:03:24.657Z,11.31
2022-11-04T17:05:57.471Z,11.28
2022-11-04T17:08:28.907Z,11.27
2022-11-04T17:10:59.878Z,11.26
2022-11-04T17:13:36.013Z,11.25
2022-11-04T17:16:08.673Z,11.23
2022-11-04T17:18:39.404Z,11.23
2022-11-04T17:21:14.652Z,11.25
2022-11-04T17:23:45.564Z,11.26
2022-11-04T17:26:16.574Z,11.23
2022-11-04T17:28:47.329Z,11.23
2022-11-04T17:31:20.398Z,11.21
2022-11-04T17:33:52.360Z,11.22
2022-11-04T17:36:23.307Z,11.17
2022-11-04T17:38:54.170Z,11.15
2022-11-04T17:41:38.947Z,11.11
2022-11-04T17:44:09.719Z,11.05
2022-11-04T17:46:41.843Z,11.04
2022-11-04T17:49:16.062Z,11.06
2022-11-04T17:51:48.428Z,11.03
2022-11-04T17:54:19.728Z,11.02
2022-11-04T17:56:50.620Z,11.04
2022-11-04T17:59:21.427Z,11.01
2022-11-04T18:01:52.470Z,10.97
2022-11-04T18:04:24.475Z,10.93
2022-11-04T18:07:01.426Z,10.92
2022-11-04T18:09:36.312Z,10.97
2022-11-04T18:12:25.300Z,11.01
2022-11-04T18:14:56.370Z,11.02
2022-11-04T18:17:27.742Z,11.00
2022-11-04T18:19:58.459Z,10.99
2022-11-04T18:22:31.064Z,11.02
2022-11-04T18:25:01.921Z,11.08
2022-11-04T18:27:32.741Z,11.06
2022-11-04T18:30:04.840Z,11.04
2022-11-04T18:32:35.808Z,11.04
2022-11-04T18:35:07.379Z,11.00
2022-11-04T18:37:39.679Z,10.98
2022-11-04T18:40:15.005Z,10.96
2022-11-04T18:42:45.988Z,10.93
2022-11-04T18:45:16.692Z,10.92
2022-11-04T18:47:49.610Z,10.91
2022-11-04T18:50:20.382Z,10.94
2022-11-04T18:52:54.197Z,11.00
2022-11-04T18:55:24.960Z,10.99
2022-11-04T18:57:58.101Z,10.99
2022-11-04T19:00:33.897Z,11.00
2022-11-04T19:03:05.753Z,10.98
2022-11-04T19:05:40.682Z,10.98
2022-11-04T19:08:11.664Z,10.97
2022-11-04T19:11:00.076Z,11.01
2022-11-04T19:13:31.670Z,11.05
2022-11-04T19:16:08.831Z,11.04
2022-11-04T19:18:40.315Z,11.05
2022-11-04T19:21:13.571Z,11.07
2022-11-04T19:23:44.593Z,11.10
2022-11-04T19:26:18.091Z,11.10
2022-11-04T19:28:50.319Z,11.10
2022-11-04T19:31:23.047Z,11.08
2022-11-04T19:33:54.292Z,11.04
2022-11-04T19:36:25.984Z,11.03
2022-11-04T19:38:58.438Z,11.00
2022-11-04T19:41:46.833Z,11.02
2022-11-04T19:44:20.292Z,11.05
2022-11-04T19:46:51.090Z,11.08
2022-11-04T19:49:21.835Z,11.10
2022-11-04T19:51:53.476Z,11.11
2022-11-04T19:54:24.155Z,11.12
2022-11-04T19:56:55.499Z,11.14
2022-11-04T19:59:26.285Z,11.15
2022-11-04T20:01:57.202Z,11.09
2022-11-04T20:04:30.322Z,11.09
2022-11-04T20:07:01.003Z,11.08
2022-11-04T20:09:31.634Z,11.09
2022-11-04T20:12:20.595Z,11.11
2022-11-04T20:14:51.299Z,11.07
2022-11-04T20:17:21.962Z,11.07
2022-11-04T20:19:53.253Z,11.01
2022-11-04T20:22:23.980Z,10.99
2022-11-04T20:24:54.626Z,11.03
2022-11-04T20:27:25.874Z,11.00
2022-11-04T20:29:56.554Z,10.97
2022-11-04T20:32:27.370Z,10.92
2022-11-04T20:34:58.019Z,10.88
2022-11-04T20:37:28.990Z,10.89
2022-11-04T20:39:59.812Z,10.83
2022-11-04T20:42:30.712Z,10.78
2022-11-04T20:45:05.303Z,10.80
2022-11-04T20:47:37.018Z,10.80
2022-11-04T20:50:11.886Z,10.81
2022-11-04T20:52:42.586Z,10.82
2022-11-04T20:55:14.214Z,10.77
2022-11-04T20:57:45.228Z,10.72
2022-11-04T21:00:17.222Z,10.71
2022-11-04T21:02:48.260Z,10.72
2022-11-04T21:05:20.055Z,10.75
2022-11-04T21:07:53.326Z,10.69
2022-11-04T21:10:24.382Z,10.67
2022-11-04T21:12:55.851Z,10.73
2022-11-04T21:15:41.816Z,10.73
2022-11-04T21:18:13.799Z,10.67
2022-11-04T21:20:44.906Z,10.65
2022-11-04T21:23:17.873Z,10.68
2022-11-04T21:25:53.886Z,10.73
2022-11-04T21:28:26.239Z,10.77
2022-11-04T21:31:02.304Z,10.74
2022-11-04T21:33:36.714Z,10.71
2022-11-04T21:36:09.418Z,10.71
2022-11-04T21:38:40.823Z,10.70
2022-11-04T21:41:13.625Z,10.69
2022-11-04T21:43:44.591Z,10.66
2022-11-04T21:46:16.978Z,10.68
2022-11-04T21:48:47.660Z,10.67
2022-11-04T21:51:20.407Z,10.63
2022-11-04T21:53:51.100Z,10.60
2022-11-04T21:56:23.724Z,10.60
2022-11-04T21:58:55.848Z,10.61
2022-11-04T22:01:28.160Z,10.60
2022-11-04T22:04:03.434Z,10.61
2022-11-04T22:06:35.795Z,10.59
2022-11-04T22:09:08.269Z,10.61
2022-11-04T22:11:39.855Z,10.64
2022-11-04T22:14:12.948Z,10.68
2022-11-04T22:16:43.828Z,10.73
2022-11-04T22:19:15.141Z,10.68
2022-11-04T22:21:47.544Z,10.62
2022-11-04T22:24:19.916Z,10.60
2022-11-04T22:26:50.794Z,10.61
2022-11-04T22:29:22.191Z,10.59
2022-11-04T22:31:52.859Z,10.54
2022-11-04T22:34:23.605Z,10.52
2022-11-04T22:36:54.572Z,10.50
2022-11-04T22:39:25.553Z,10.50
2022-11-04T22:41:56.583Z,10.50
2022-11-04T22:44:27.757Z,10.47
2022-11-04T22:47:03.207Z,10.45
2022-11-04T22:49:44.168Z,10.46
2022-11-04T22:52:15.273Z,10.44
2022-11-04T22:54:46.630Z,10.41
2022-11-04T22:57:22.335Z,10.37
2022-11-04T22:59:53.436Z,10.36
2022-11-04T23:02:24.471Z,10.39
2022-11-04T23:04:55.247Z,10.42
2022-11-04T23:07:25.972Z,10.43
2022-11-04T23:10:14.061Z,10.39
2022-11-04T23:13:02.542Z,10.40
2022-11-04T23:16:05.403Z,10.42
2022-11-04T23:18:44.930Z,10.41
2022-11-04T23:21:35.867Z,10.41
2022-11-04T23:24:24.799Z,10.39
2022-11-04T23:26:55.510Z,10.40
2022-11-04T23:29:43.402Z,10.42
2022-11-04T23:32:14.874Z,10.42
2022-11-04T23:35:03.314Z,10.46
2022-11-04T23:37:34.958Z,10.47
2022-11-04T23:40:07.025Z,10.42
2022-11-04T23:42:37.696Z,10.39
2022-11-04T23:45:27.220Z,10.36
2022-11-04T23:48:29.736Z,10.36
2022-11-04T23:51:19.446Z,10.35
2022-11-04T23:54:07.672Z,10.35
2022-11-04T23:56:55.818Z,10.31
2022-11-04T23:59:44.778Z,10.35
